sensor_id;sensor_type;location;lat;lon;timestamp;P1;durP1;ratioP1;P2;durP2;ratioP2
59054;SDS011;44845;51.444;7.460;2023-03-04T00:01:37;24.15;;;11.02;;
59054;SDS011;44845;51.444;7.460;2023-03-04T00:04:02;24.63;;;10.68;;
59054;SDS011;44845;51.444;7.460;2023-03-04T00:06:28;24.02;;;11.13;;
59054;SDS011;44845;51.444;7.460;2023-03-04T00:08:54;22.40;;;10.75;;
59054;SDS011;44845;51.444;7.460;2023-03-04T00:11:19;22.35;;;10.02;;
59054;SDS011;44845;51.444;7.460;2023-03-04T00:13:44;21.67;;;10.70;;
59054;SDS011;44845;51.444;7.460;2023-03-04T00:16:10;22.10;;;10.32;;
59054;SDS011;44845;51.444;7.460;2023-03-04T00:18:35;19.30;;;9.68;;
59054;SDS011;44845;51.444;7.460;2023-03-04T00:21:01;23.48;;;10.90;;
59054;SDS011;44845;51.444;7.460;2023-03-04T00:23:26;23.52;;;10.00;;
59054;SDS011;44845;51.444;7.460;2023-03-04T00:25:51;18.00;;;9.15;;
59054;SDS011;44845;51.444;7.460;2023-03-04T00:28:17;21.27;;;9.68;;
59054;SDS011;44845;51.444;7.460;2023-03-04T00:30:43;19.15;;;8.05;;
59054;SDS011;44845;51.444;7.460;2023-03-04T00:33:08;15.43;;;7.43;;
59054;SDS011;44845;51.444;7.460;2023-03-04T00:35:34;23.90;;;7.40;;
59054;SDS011;44845;51.444;7.460;2023-03-04T00:37:59;19.85;;;7.28;;
59054;SDS011;44845;51.444;7.460;2023-03-04T00:40:24;16.27;;;6.10;;
59054;SDS011;44845;51.444;7.460;2023-03-04T00:42:51;18.63;;;6.80;;
59054;SDS011;44845;51.444;7.460;2023-03-04T00:45:16;20.27;;;6.13;;
59054;SDS011;44845;51.444;7.460;2023-03-04T00:47:41;14.13;;;5.55;;
59054;SDS011;44845;51.444;7.460;2023-03-04T00:50:07;17.17;;;6.53;;
59054;SDS011;44845;51.444;7.460;2023-03-04T00:52:33;12.38;;;5.00;;
59054;SDS011;44845;51.444;7.460;2023-03-04T00:54:59;17.70;;;5.13;;
59054;SDS011;44845;51.444;7.460;2023-03-04T00:57:25;14.70;;;4.82;;
59054;SDS011;44845;51.444;7.460;2023-03-04T00:59:50;20.15;;;5.13;;
59054;SDS011;44845;51.444;7.460;2023-03-04T01:02:15;21.52;;;4.97;;
59054;SDS011;44845;51.444;7.460;2023-03-04T01:04:41;15.38;;;4.32;;
59054;SDS011;44845;51.444;7.460;2023-03-04T01:07:06;19.98;;;4.05;;
59054;SDS011;44845;51.444;7.460;2023-03-04T01:09:32;14.88;;;4.38;;
59054;SDS011;44845;51.444;7.460;2023-03-04T01:11:57;15.45;;;3.78;;
59054;SDS011;44845;51.444;7.460;2023-03-04T01:14:23;18.08;;;3.65;;
59054;SDS011;44845;51.444;7.460;2023-03-04T01:16:48;11.77;;;3.30;;
59054;SDS011;44845;51.444;7.460;2023-03-04T01:19:14;22.23;;;4.13;;
59054;SDS011;44845;51.444;7.460;2023-03-04T01:21:40;17.02;;;4.05;;
59054;SDS011;44845;51.444;7.460;2023-03-04T01:24:05;15.73;;;4.07;;
59054;SDS011;44845;51.444;7.460;2023-03-04T01:26:31;11.48;;;3.50;;
59054;SDS011;44845;51.444;7.460;2023-03-04T01:28:56;22.38;;;3.45;;
59054;SDS011;44845;51.444;7.460;2023-03-04T01:31:21;11.13;;;2.83;;
59054;SDS011;44845;51.444;7.460;2023-03-04T01:33:47;16.65;;;2.88;;
59054;SDS011;44845;51.444;7.460;2023-03-04T01:36:12;14.60;;;3.22;;
59054;SDS011;44845;51.444;7.460;2023-03-04T01:38:38;18.45;;;2.95;;
59054;SDS011;44845;51.444;7.460;2023-03-04T01:41:03;15.40;;;2.70;;
59054;SDS011;44845;51.444;7.460;2023-03-04T01:43:29;15.95;;;3.17;;
59054;SDS011;44845;51.444;7.460;2023-03-04T01:45:55;15.45;;;3.13;;
59054;SDS011;44845;51.444;7.460;2023-03-04T01:48:29;17.02;;;3.55;;
59054;SDS011;44845;51.444;7.460;2023-03-04T01:50:58;8.30;;;2.45;;
59054;SDS011;44845;51.444;7.460;2023-03-04T01:53:27;14.32;;;3.05;;
59054;SDS011;44845;51.444;7.460;2023-03-04T01:55:54;11.27;;;2.60;;
59054;SDS011;44845;51.444;7.460;2023-03-04T01:58:23;14.82;;;2.97;;
59054;SDS011;44845;51.444;7.460;2023-03-04T02:00:52;11.85;;;2.58;;
59054;SDS011;44845;51.444;7.460;2023-03-04T02:03:17;16.30;;;3.53;;
59054;SDS011;44845;51.444;7.460;2023-03-04T02:05:45;12.07;;;3.10;;
59054;SDS011;44845;51.444;7.460;2023-03-04T02:08:13;14.18;;;2.78;;
59054;SDS011;44845;51.444;7.460;2023-03-04T02:10:41;12.70;;;2.38;;
59054;SDS011;44845;51.444;7.460;2023-03-04T02:13:07;16.90;;;2.67;;
59054;SDS011;44845;51.444;7.460;2023-03-04T02:15:33;15.02;;;2.58;;
59054;SDS011;44845;51.444;7.460;2023-03-04T02:17:59;9.95;;;2.13;;
59054;SDS011;44845;51.444;7.460;2023-03-04T02:20:31;17.45;;;2.78;;
59054;SDS011;44845;51.444;7.460;2023-03-04T02:23:32;11.82;;;2.40;;
59054;SDS011;44845;51.444;7.460;2023-03-04T02:26:12;9.70;;;2.42;;
59054;SDS011;44845;51.444;7.460;2023-03-04T02:28:37;15.07;;;2.58;;
59054;SDS011;44845;51.444;7.460;2023-03-04T02:31:03;12.98;;;2.78;;
59054;SDS011;44845;51.444;7.460;2023-03-04T02:33:28;13.90;;;2.42;;
59054;SDS011;44845;51.444;7.460;2023-03-04T02:35:54;16.45;;;2.85;;
59054;SDS011;44845;51.444;7.460;2023-03-04T02:38:19;13.02;;;2.63;;
59054;SDS011;44845;51.444;7.460;2023-03-04T02:40:46;16.20;;;2.60;;
59054;SDS011;44845;51.444;7.460;2023-03-04T02:43:14;13.35;;;2.45;;
59054;SDS011;44845;51.444;7.460;2023-03-04T02:45:41;17.98;;;2.50;;
59054;SDS011;44845;51.444;7.460;2023-03-04T02:48:07;15.40;;;2.85;;
59054;SDS011;44845;51.444;7.460;2023-03-04T02:50:34;12.70;;;2.35;;
59054;SDS011;44845;51.444;7.460;2023-03-04T02:53:03;15.38;;;2.42;;
59054;SDS011;44845;51.444;7.460;2023-03-04T02:55:29;22.40;;;3.13;;
59054;SDS011;44845;51.444;7.460;2023-03-04T02:57:56;14.32;;;2.55;;
59054;SDS011;44845;51.444;7.460;2023-03-04T03:00:21;15.52;;;2.88;;
59054;SDS011;44845;51.444;7.460;2023-03-04T03:02:47;20.45;;;3.28;;
59054;SDS011;44845;51.444;7.460;2023-03-04T03:05:12;12.75;;;2.60;;
59054;SDS011;44845;51.444;7.460;2023-03-04T03:07:38;19.80;;;3.10;;
59054;SDS011;44845;51.444;7.460;2023-03-04T03:10:03;15.73;;;2.60;;
59054;SDS011;44845;51.444;7.460;2023-03-04T03:12:29;25.80;;;2.80;;
59054;SDS011;44845;51.444;7.460;2023-03-04T03:14:54;16.00;;;2.55;;
59054;SDS011;44845;51.444;7.460;2023-03-04T03:17:20;12.77;;;2.33;;
59054;SDS011;44845;51.444;7.460;2023-03-04T03:19:45;16.08;;;2.33;;
59054;SDS011;44845;51.444;7.460;2023-03-04T03:22:10;12.52;;;2.50;;
59054;SDS011;44845;51.444;7.460;2023-03-04T03:24:36;12.05;;;2.15;;
59054;SDS011;44845;51.444;7.460;2023-03-04T03:27:01;20.00;;;2.83;;
59054;SDS011;44845;51.444;7.460;2023-03-04T03:29:27;11.68;;;2.05;;
59054;SDS011;44845;51.444;7.460;2023-03-04T03:31:52;15.02;;;2.95;;
59054;SDS011;44845;51.444;7.460;2023-03-04T03:34:17;13.05;;;2.40;;
59054;SDS011;44845;51.444;7.460;2023-03-04T03:36:43;15.68;;;2.63;;
59054;SDS011;44845;51.444;7.460;2023-03-04T03:39:09;15.02;;;2.78;;
59054;SDS011;44845;51.444;7.460;2023-03-04T03:41:34;7.70;;;1.80;;
59054;SDS011;44845;51.444;7.460;2023-03-04T03:43:59;12.68;;;2.47;;
59054;SDS011;44845;51.444;7.460;2023-03-04T03:46:25;12.90;;;2.05;;
59054;SDS011;44845;51.444;7.460;2023-03-04T03:48:51;12.95;;;2.30;;
59054;SDS011;44845;51.444;7.460;2023-03-04T03:51:16;13.90;;;2.28;;
59054;SDS011;44845;51.444;7.460;2023-03-04T03:53:41;14.60;;;2.10;;
59054;SDS011;44845;51.444;7.460;2023-03-04T03:56:07;15.93;;;2.55;;
59054;SDS011;44845;51.444;7.460;2023-03-04T03:58:32;19.90;;;2.30;;
59054;SDS011;44845;51.444;7.460;2023-03-04T04:00:57;17.75;;;2.63;;
59054;SDS011;44845;51.444;7.460;2023-03-04T04:03:23;11.65;;;2.13;;
59054;SDS011;44845;51.444;7.460;2023-03-04T04:05:48;10.65;;;1.92;;
59054;SDS011;44845;51.444;7.460;2023-03-04T04:08:17;15.25;;;1.75;;
59054;SDS011;44845;51.444;7.460;2023-03-04T04:10:43;13.90;;;1.90;;
59054;SDS011;44845;51.444;7.460;2023-03-04T04:13:08;13.07;;;2.10;;
59054;SDS011;44845;51.444;7.460;2023-03-04T04:15:34;20.05;;;2.30;;
59054;SDS011;44845;51.444;7.460;2023-03-04T04:18:00;13.10;;;2.53;;
59054;SDS011;44845;51.444;7.460;2023-03-04T04:20:26;12.85;;;2.08;;
59054;SDS011;44845;51.444;7.460;2023-03-04T04:22:52;17.98;;;2.30;;
59054;SDS011;44845;51.444;7.460;2023-03-04T04:25:17;15.05;;;2.20;;
59054;SDS011;44845;51.444;7.460;2023-03-04T04:27:42;14.38;;;1.85;;
59054;SDS011;44845;51.444;7.460;2023-03-04T04:30:08;13.20;;;2.10;;
59054;SDS011;44845;51.444;7.460;2023-03-04T04:32:34;9.30;;;1.90;;
59054;SDS011;44845;51.444;7.460;2023-03-04T04:34:59;12.25;;;2.10;;
59054;SDS011;44845;51.444;7.460;2023-03-04T04:37:24;13.73;;;1.75;;
59054;SDS011;44845;51.444;7.460;2023-03-04T04:39:50;16.08;;;2.00;;
59054;SDS011;44845;51.444;7.460;2023-03-04T04:42:15;9.65;;;2.45;;
59054;SDS011;44845;51.444;7.460;2023-03-04T04:44:41;13.75;;;2.13;;
59054;SDS011;44845;51.444;7.460;2023-03-04T04:47:06;10.25;;;2.33;;
59054;SDS011;44845;51.444;7.460;2023-03-04T04:49:33;16.23;;;1.98;;
59054;SDS011;44845;51.444;7.460;2023-03-04T04:51:58;14.32;;;1.80;;
59054;SDS011;44845;51.444;7.460;2023-03-04T04:54:24;14.20;;;2.00;;
59054;SDS011;44845;51.444;7.460;2023-03-04T04:56:49;11.65;;;1.92;;
59054;SDS011;44845;51.444;7.460;2023-03-04T04:59:14;15.05;;;2.13;;
59054;SDS011;44845;51.444;7.460;2023-03-04T05:01:40;14.70;;;2.03;;
59054;SDS011;44845;51.444;7.460;2023-03-04T05:04:05;10.57;;;1.92;;
59054;SDS011;44845;51.444;7.460;2023-03-04T05:06:31;11.82;;;2.25;;
59054;SDS011;44845;51.444;7.460;2023-03-04T05:08:56;12.27;;;2.60;;
59054;SDS011;44845;51.444;7.460;2023-03-04T05:11:21;14.85;;;2.05;;
59054;SDS011;44845;51.444;7.460;2023-03-04T05:13:47;11.52;;;1.95;;
59054;SDS011;44845;51.444;7.460;2023-03-04T05:16:13;10.60;;;2.10;;
59054;SDS011;44845;51.444;7.460;2023-03-04T05:18:40;10.63;;;1.63;;
59054;SDS011;44845;51.444;7.460;2023-03-04T05:21:06;11.02;;;1.90;;
59054;SDS011;44845;51.444;7.460;2023-03-04T05:23:33;13.25;;;2.58;;
59054;SDS011;44845;51.444;7.460;2023-03-04T05:26:00;8.73;;;1.92;;
59054;SDS011;44845;51.444;7.460;2023-03-04T05:28:26;9.85;;;1.63;;
59054;SDS011;44845;51.444;7.460;2023-03-04T05:30:52;7.35;;;1.92;;
59054;SDS011;44845;51.444;7.460;2023-03-04T05:33:18;15.20;;;2.45;;
59054;SDS011;44845;51.444;7.460;2023-03-04T05:35:43;12.85;;;2.63;;
59054;SDS011;44845;51.444;7.460;2023-03-04T05:38:10;13.30;;;2.00;;
59054;SDS011;44845;51.444;7.460;2023-03-04T05:40:37;11.88;;;2.15;;
59054;SDS011;44845;51.444;7.460;2023-03-04T05:43:03;9.90;;;1.30;;
59054;SDS011;44845;51.444;7.460;2023-03-04T05:45:28;6.43;;;1.50;;
59054;SDS011;44845;51.444;7.460;2023-03-04T05:47:54;10.27;;;2.20;;
59054;SDS011;44845;51.444;7.460;2023-03-04T05:50:20;15.20;;;1.63;;
59054;SDS011;44845;51.444;7.460;2023-03-04T05:52:46;16.58;;;2.20;;
59054;SDS011;44845;51.444;7.460;2023-03-04T05:55:12;17.85;;;2.08;;
59054;SDS011;44845;51.444;7.460;2023-03-04T05:57:38;11.55;;;1.65;;
59054;SDS011;44845;51.444;7.460;2023-03-04T06:00:05;14.73;;;2.42;;
59054;SDS011;44845;51.444;7.460;2023-03-04T06:02:33;7.47;;;1.48;;
59054;SDS011;44845;51.444;7.460;2023-03-04T06:04:59;8.05;;;1.42;;
59054;SDS011;44845;51.444;7.460;2023-03-04T06:07:24;9.13;;;1.60;;
59054;SDS011;44845;51.444;7.460;2023-03-04T06:09:50;9.93;;;1.58;;
59054;SDS011;44845;51.444;7.460;2023-03-04T06:12:15;11.98;;;1.55;;
59054;SDS011;44845;51.444;7.460;2023-03-04T06:14:40;4.68;;;1.42;;
59054;SDS011;44845;51.444;7.460;2023-03-04T06:17:06;8.10;;;1.80;;
59054;SDS011;44845;51.444;7.460;2023-03-04T06:19:31;7.80;;;1.40;;
59054;SDS011;44845;51.444;7.460;2023-03-04T06:21:57;13.00;;;1.60;;
59054;SDS011;44845;51.444;7.460;2023-03-04T06:24:22;7.55;;;1.45;;
59054;SDS011;44845;51.444;7.460;2023-03-04T06:26:48;9.65;;;1.58;;
59054;SDS011;44845;51.444;7.460;2023-03-04T06:29:13;15.90;;;2.70;;
59054;SDS011;44845;51.444;7.460;2023-03-04T06:31:38;14.27;;;2.03;;
59054;SDS011;44845;51.444;7.460;2023-03-04T06:34:05;8.18;;;1.77;;
59054;SDS011;44845;51.444;7.460;2023-03-04T06:36:31;9.70;;;1.75;;
59054;SDS011;44845;51.444;7.460;2023-03-04T06:38:57;9.82;;;1.95;;
59054;SDS011;44845;51.444;7.460;2023-03-04T06:41:22;15.15;;;2.15;;
59054;SDS011;44845;51.444;7.460;2023-03-04T06:43:47;13.00;;;1.55;;
59054;SDS011;44845;51.444;7.460;2023-03-04T06:46:13;16.02;;;2.47;;
59054;SDS011;44845;51.444;7.460;2023-03-04T06:48:38;8.20;;;1.80;;
59054;SDS011;44845;51.444;7.460;2023-03-04T06:51:04;7.35;;;1.45;;
59054;SDS011;44845;51.444;7.460;2023-03-04T06:53:34;9.68;;;1.48;;
59054;SDS011;44845;51.444;7.460;2023-03-04T06:56:00;11.43;;;2.13;;
59054;SDS011;44845;51.444;7.460;2023-03-04T06:58:25;11.35;;;1.90;;
59054;SDS011;44845;51.444;7.460;2023-03-04T07:00:50;10.05;;;1.75;;
59054;SDS011;44845;51.444;7.460;2023-03-04T07:03:16;14.13;;;1.80;;
59054;SDS011;44845;51.444;7.460;2023-03-04T07:05:41;8.48;;;1.58;;
59054;SDS011;44845;51.444;7.460;2023-03-04T07:08:07;9.48;;;1.40;;
59054;SDS011;44845;51.444;7.460;2023-03-04T07:10:32;5.57;;;1.42;;
59054;SDS011;44845;51.444;7.460;2023-03-04T07:12:58;14.20;;;2.13;;
59054;SDS011;44845;51.444;7.460;2023-03-04T07:15:23;11.82;;;1.50;;
59054;SDS011;44845;51.444;7.460;2023-03-04T07:17:48;8.15;;;1.48;;
59054;SDS011;44845;51.444;7.460;2023-03-04T07:20:14;12.10;;;1.85;;
59054;SDS011;44845;51.444;7.460;2023-03-04T07:22:39;14.52;;;2.13;;
59054;SDS011;44845;51.444;7.460;2023-03-04T07:25:05;7.35;;;1.90;;
59054;SDS011;44845;51.444;7.460;2023-03-04T07:27:31;12.15;;;2.38;;
59054;SDS011;44845;51.444;7.460;2023-03-04T07:29:56;19.10;;;2.60;;
59054;SDS011;44845;51.444;7.460;2023-03-04T07:32:21;11.93;;;2.17;;
59054;SDS011;44845;51.444;7.460;2023-03-04T07:34:47;7.50;;;1.88;;
59054;SDS011;44845;51.444;7.460;2023-03-04T07:37:12;11.55;;;1.40;;
59054;SDS011;44845;51.444;7.460;2023-03-04T07:39:37;14.80;;;1.88;;
59054;SDS011;44845;51.444;7.460;2023-03-04T07:42:03;11.25;;;2.30;;
59054;SDS011;44845;51.444;7.460;2023-03-04T07:44:28;8.35;;;1.70;;
59054;SDS011;44845;51.444;7.460;2023-03-04T07:46:54;15.30;;;2.22;;
59054;SDS011;44845;51.444;7.460;2023-03-04T07:49:20;8.82;;;1.95;;
59054;SDS011;44845;51.444;7.460;2023-03-04T07:51:45;7.07;;;1.75;;
59054;SDS011;44845;51.444;7.460;2023-03-04T07:54:11;7.53;;;1.67;;
59054;SDS011;44845;51.444;7.460;2023-03-04T07:56:36;7.43;;;1.70;;
59054;SDS011;44845;51.444;7.460;2023-03-04T07:59:02;8.80;;;1.90;;
59054;SDS011;44845;51.444;7.460;2023-03-04T08:01:28;5.60;;;1.58;;
59054;SDS011;44845;51.444;7.460;2023-03-04T08:03:56;6.90;;;1.50;;
59054;SDS011;44845;51.444;7.460;2023-03-04T08:06:23;7.28;;;2.00;;
59054;SDS011;44845;51.444;7.460;2023-03-04T08:08:54;11.18;;;1.65;;
59054;SDS011;44845;51.444;7.460;2023-03-04T08:11:21;6.40;;;1.58;;
59054;SDS011;44845;51.444;7.460;2023-03-04T08:13:46;8.45;;;1.60;;
59054;SDS011;44845;51.444;7.460;2023-03-04T08:16:12;7.60;;;1.80;;
59054;SDS011;44845;51.444;7.460;2023-03-04T08:18:40;8.93;;;2.45;;
59054;SDS011;44845;51.444;7.460;2023-03-04T08:21:12;9.10;;;1.90;;
59054;SDS011;44845;51.444;7.460;2023-03-04T08:23:38;4.90;;;1.90;;
59054;SDS011;44845;51.444;7.460;2023-03-04T08:26:07;7.22;;;1.60;;
59054;SDS011;44845;51.444;7.460;2023-03-04T08:28:34;10.13;;;2.00;;
59054;SDS011;44845;51.444;7.460;2023-03-04T08:30:59;9.75;;;1.55;;
59054;SDS011;44845;51.444;7.460;2023-03-04T08:33:25;10.45;;;1.80;;
59054;SDS011;44845;51.444;7.460;2023-03-04T08:35:51;8.15;;;1.50;;
59054;SDS011;44845;51.444;7.460;2023-03-04T08:38:16;5.15;;;1.50;;
59054;SDS011;44845;51.444;7.460;2023-03-04T08:40:42;9.40;;;2.13;;
59054;SDS011;44845;51.444;7.460;2023-03-04T08:43:07;10.35;;;1.70;;
59054;SDS011;44845;51.444;7.460;2023-03-04T08:45:33;8.75;;;1.88;;
59054;SDS011;44845;51.444;7.460;2023-03-04T08:47:58;8.50;;;1.80;;
59054;SDS011;44845;51.444;7.460;2023-03-04T08:50:23;5.47;;;1.90;;
59054;SDS011;44845;51.444;7.460;2023-03-04T08:52:51;7.50;;;1.33;;
59054;SDS011;44845;51.444;7.460;2023-03-04T08:55:16;9.00;;;2.15;;
59054;SDS011;44845;51.444;7.460;2023-03-04T08:57:42;8.77;;;1.70;;
59054;SDS011;44845;51.444;7.460;2023-03-04T09:00:07;3.75;;;1.42;;
59054;SDS011;44845;51.444;7.460;2023-03-04T09:02:33;9.27;;;1.48;;
59054;SDS011;44845;51.444;7.460;2023-03-04T09:04:59;12.18;;;1.90;;
59054;SDS011;44845;51.444;7.460;2023-03-04T09:07:24;8.27;;;1.33;;
59054;SDS011;44845;51.444;7.460;2023-03-04T09:09:50;8.35;;;1.85;;
59054;SDS011;44845;51.444;7.460;2023-03-04T09:12:15;7.63;;;1.85;;
59054;SDS011;44845;51.444;7.460;2023-03-04T09:14:41;12.60;;;2.10;;
59054;SDS011;44845;51.444;7.460;2023-03-04T09:17:06;11.88;;;1.92;;
59054;SDS011;44845;51.444;7.460;2023-03-04T09:19:31;5.18;;;1.67;;
59054;SDS011;44845;51.444;7.460;2023-03-04T09:21:57;8.88;;;2.03;;
59054;SDS011;44845;51.444;7.460;2023-03-04T09:24:26;5.72;;;2.35;;
59054;SDS011;44845;51.444;7.460;2023-03-04T09:26:52;8.82;;;2.50;;
59054;SDS011;44845;51.444;7.460;2023-03-04T09:29:18;6.78;;;1.70;;
59054;SDS011;44845;51.444;7.460;2023-03-04T09:31:43;7.80;;;2.22;;
59054;SDS011;44845;51.444;7.460;2023-03-04T09:34:08;5.10;;;1.83;;
59054;SDS011;44845;51.444;7.460;2023-03-04T09:36:34;6.40;;;1.60;;
59054;SDS011;44845;51.444;7.460;2023-03-04T09:39:00;7.38;;;1.95;;
59054;SDS011;44845;51.444;7.460;2023-03-04T09:41:30;7.07;;;2.03;;
59054;SDS011;44845;51.444;7.460;2023-03-04T09:44:01;5.70;;;2.33;;
59054;SDS011;44845;51.444;7.460;2023-03-04T09:46:35;8.57;;;1.73;;
59054;SDS011;44845;51.444;7.460;2023-03-04T09:49:03;6.97;;;2.10;;
59054;SDS011;44845;51.444;7.460;2023-03-04T09:51:46;10.63;;;2.13;;
59054;SDS011;44845;51.444;7.460;2023-03-04T09:57:21;7.18;;;3.42;;
59054;SDS011;44845;51.444;7.460;2023-03-04T10:02:27;9.23;;;4.13;;
59054;SDS011;44845;51.444;7.460;2023-03-04T10:05:09;9.95;;;3.92;;
59054;SDS011;44845;51.444;7.460;2023-03-04T10:07:40;7.57;;;3.65;;
59054;SDS011;44845;51.444;7.460;2023-03-04T10:10:15;6.60;;;4.00;;
59054;SDS011;44845;51.444;7.460;2023-03-04T10:12:46;7.55;;;3.90;;
59054;SDS011;44845;51.444;7.460;2023-03-04T10:18:13;10.60;;;4.50;;
59054;SDS011;44845;51.444;7.460;2023-03-04T10:23:14;13.52;;;4.80;;
59054;SDS011;44845;51.444;7.460;2023-03-04T10:25:44;12.32;;;4.68;;
59054;SDS011;44845;51.444;7.460;2023-03-04T10:28:11;6.00;;;3.83;;
59054;SDS011;44845;51.444;7.460;2023-03-04T10:30:52;8.18;;;4.30;;
59054;SDS011;44845;51.444;7.460;2023-03-04T10:33:38;8.00;;;4.47;;
59054;SDS011;44845;51.444;7.460;2023-03-04T10:39:02;8.93;;;4.20;;
59054;SDS011;44845;51.444;7.460;2023-03-04T10:41:32;10.00;;;4.90;;
59054;SDS011;44845;51.444;7.460;2023-03-04T10:46:32;8.35;;;5.07;;
59054;SDS011;44845;51.444;7.460;2023-03-04T10:48:57;10.77;;;5.47;;
59054;SDS011;44845;51.444;7.460;2023-03-04T10:51:25;14.13;;;6.00;;
59054;SDS011;44845;51.444;7.460;2023-03-04T10:54:06;9.30;;;5.65;;
59054;SDS011;44845;51.444;7.460;2023-03-04T10:57:00;9.10;;;5.75;;
59054;SDS011;44845;51.444;7.460;2023-03-04T11:02:22;11.73;;;6.80;;
59054;SDS011;44845;51.444;7.460;2023-03-04T11:07:39;10.95;;;7.05;;
59054;SDS011;44845;51.444;7.460;2023-03-04T11:10:18;14.95;;;7.10;;
59054;SDS011;44845;51.444;7.460;2023-03-04T11:13:29;11.90;;;6.93;;
59054;SDS011;44845;51.444;7.460;2023-03-04T11:15:51;11.57;;;6.50;;
59054;SDS011;44845;51.444;7.460;2023-03-04T11:18:39;9.57;;;6.50;;
59054;SDS011;44845;51.444;7.460;2023-03-04T11:21:13;10.15;;;6.40;;
59054;SDS011;44845;51.444;7.460;2023-03-04T11:26:13;11.20;;;6.38;;
59054;SDS011;44845;51.444;7.460;2023-03-04T11:28:50;9.95;;;5.85;;
59054;SDS011;44845;51.444;7.460;2023-03-04T11:31:21;8.20;;;5.63;;
59054;SDS011;44845;51.444;7.460;2023-03-04T11:38:54;10.63;;;6.38;;
59054;SDS011;44845;51.444;7.460;2023-03-04T11:41:25;10.82;;;6.32;;
59054;SDS011;44845;51.444;7.460;2023-03-04T11:43:56;14.30;;;7.15;;
59054;SDS011;44845;51.444;7.460;2023-03-04T11:57:36;9.55;;;5.95;;
59054;SDS011;44845;51.444;7.460;2023-03-04T12:00:11;7.97;;;5.13;;
59054;SDS011;44845;51.444;7.460;2023-03-04T12:03:34;6.97;;;5.30;;
59054;SDS011;44845;51.444;7.460;2023-03-04T12:11:33;6.32;;;4.10;;
59054;SDS011;44845;51.444;7.460;2023-03-04T12:21:58;11.00;;;5.10;;
59054;SDS011;44845;51.444;7.460;2023-03-04T12:30:39;8.27;;;5.50;;
59054;SDS011;44845;51.444;7.460;2023-03-04T12:33:39;7.05;;;4.38;;
59054;SDS011;44845;51.444;7.460;2023-03-04T12:44:39;5.60;;;3.17;;
59054;SDS011;44845;51.444;7.460;2023-03-04T12:47:27;7.60;;;3.50;;
59054;SDS011;44845;51.444;7.460;2023-03-04T12:50:24;7.55;;;3.40;;
59054;SDS011;44845;51.444;7.460;2023-03-04T12:59:08;5.53;;;3.17;;
59054;SDS011;44845;51.444;7.460;2023-03-04T13:01:45;4.32;;;3.00;;
59054;SDS011;44845;51.444;7.460;2023-03-04T13:04:26;3.97;;;2.63;;
59054;SDS011;44845;51.444;7.460;2023-03-04T13:10:08;5.43;;;3.20;;
59054;SDS011;44845;51.444;7.460;2023-03-04T13:12:47;8.35;;;3.33;;
59054;SDS011;44845;51.444;7.460;2023-03-04T13:15:17;6.97;;;3.83;;
59054;SDS011;44845;51.444;7.460;2023-03-04T13:17:43;6.60;;;4.28;;
59054;SDS011;44845;51.444;7.460;2023-03-04T13:20:19;8.32;;;4.30;;
59054;SDS011;44845;51.444;7.460;2023-03-04T13:25:28;8.63;;;5.65;;
59054;SDS011;44845;51.444;7.460;2023-03-04T13:32:55;9.05;;;6.68;;
59054;SDS011;44845;51.444;7.460;2023-03-04T13:38:23;12.13;;;6.57;;
59054;SDS011;44845;51.444;7.460;2023-03-04T13:43:44;9.85;;;5.43;;
59054;SDS011;44845;51.444;7.460;2023-03-04T13:56:20;5.35;;;2.45;;
59054;SDS011;44845;51.444;7.460;2023-03-04T13:58:47;4.80;;;1.83;;
59054;SDS011;44845;51.444;7.460;2023-03-04T14:01:27;2.70;;;1.58;;
59054;SDS011;44845;51.444;7.460;2023-03-04T14:03:56;2.70;;;1.48;;
59054;SDS011;44845;51.444;7.460;2023-03-04T14:06:24;3.30;;;1.67;;
59054;SDS011;44845;51.444;7.460;2023-03-04T14:08:54;7.40;;;2.20;;
59054;SDS011;44845;51.444;7.460;2023-03-04T14:11:23;3.55;;;1.90;;
59054;SDS011;44845;51.444;7.460;2023-03-04T14:14:10;3.80;;;1.70;;
59054;SDS011;44845;51.444;7.460;2023-03-04T14:16:44;4.30;;;1.85;;
59054;SDS011;44845;51.444;7.460;2023-03-04T14:19:15;3.65;;;1.83;;
59054;SDS011;44845;51.444;7.460;2023-03-04T14:21:44;2.97;;;1.83;;
59054;SDS011;44845;51.444;7.460;2023-03-04T14:24:12;3.08;;;2.00;;
59054;SDS011;44845;51.444;7.460;2023-03-04T14:26:40;4.18;;;2.20;;
59054;SDS011;44845;51.444;7.460;2023-03-04T14:29:18;14.15;;;7.60;;
59054;SDS011;44845;51.444;7.460;2023-03-04T14:31:54;4.97;;;2.22;;
59054;SDS011;44845;51.444;7.460;2023-03-04T14:34:42;6.55;;;2.65;;
59054;SDS011;44845;51.444;7.460;2023-03-04T14:40:06;3.00;;;1.90;;
59054;SDS011;44845;51.444;7.460;2023-03-04T14:42:38;3.47;;;2.33;;
59054;SDS011;44845;51.444;7.460;2023-03-04T14:45:10;6.30;;;2.60;;
59054;SDS011;44845;51.444;7.460;2023-03-04T14:47:39;6.05;;;2.65;;
59054;SDS011;44845;51.444;7.460;2023-03-04T14:50:11;3.78;;;2.42;;
59054;SDS011;44845;51.444;7.460;2023-03-04T14:52:40;4.95;;;2.60;;
59054;SDS011;44845;51.444;7.460;2023-03-04T14:57:38;3.47;;;2.65;;
59054;SDS011;44845;51.444;7.460;2023-03-04T15:02:52;3.17;;;2.53;;
59054;SDS011;44845;51.444;7.460;2023-03-04T15:05:32;3.63;;;2.63;;
59054;SDS011;44845;51.444;7.460;2023-03-04T15:08:04;6.32;;;2.40;;
59054;SDS011;44845;51.444;7.460;2023-03-04T15:10:42;4.07;;;2.50;;
59054;SDS011;44845;51.444;7.460;2023-03-04T15:13:41;5.80;;;2.35;;
59054;SDS011;44845;51.444;7.460;2023-03-04T15:16:08;5.03;;;2.15;;
59054;SDS011;44845;51.444;7.460;2023-03-04T15:18:36;7.05;;;2.47;;
59054;SDS011;44845;51.444;7.460;2023-03-04T15:21:36;5.82;;;2.85;;
59054;SDS011;44845;51.444;7.460;2023-03-04T15:24:02;5.63;;;2.50;;
59054;SDS011;44845;51.444;7.460;2023-03-04T15:26:30;6.40;;;2.60;;
59054;SDS011;44845;51.444;7.460;2023-03-04T15:28:57;11.23;;;2.47;;
59054;SDS011;44845;51.444;7.460;2023-03-04T15:31:23;5.22;;;2.03;;
59054;SDS011;44845;51.444;7.460;2023-03-04T15:33:52;9.15;;;2.28;;
59054;SDS011;44845;51.444;7.460;2023-03-04T15:36:18;5.18;;;1.67;;
59054;SDS011;44845;51.444;7.460;2023-03-04T15:38:47;8.68;;;1.80;;
59054;SDS011;44845;51.444;7.460;2023-03-04T15:41:17;5.78;;;1.70;;
59054;SDS011;44845;51.444;7.460;2023-03-04T15:43:46;7.90;;;2.00;;
59054;SDS011;44845;51.444;7.460;2023-03-04T15:46:11;5.38;;;1.63;;
59054;SDS011;44845;51.444;7.460;2023-03-04T15:48:37;12.20;;;1.42;;
59054;SDS011;44845;51.444;7.460;2023-03-04T15:51:02;7.32;;;1.70;;
59054;SDS011;44845;51.444;7.460;2023-03-04T15:53:31;8.18;;;1.42;;
59054;SDS011;44845;51.444;7.460;2023-03-04T15:56:01;9.20;;;1.55;;
59054;SDS011;44845;51.444;7.460;2023-03-04T15:58:27;6.70;;;1.27;;
59054;SDS011;44845;51.444;7.460;2023-03-04T16:00:53;7.40;;;1.83;;
59054;SDS011;44845;51.444;7.460;2023-03-04T16:03:20;8.90;;;1.60;;
59054;SDS011;44845;51.444;7.460;2023-03-04T16:05:46;6.32;;;1.05;;
59054;SDS011;44845;51.444;7.460;2023-03-04T16:08:14;7.75;;;1.77;;
59054;SDS011;44845;51.444;7.460;2023-03-04T16:10:42;8.23;;;1.50;;
59054;SDS011;44845;51.444;7.460;2023-03-04T16:13:15;12.57;;;1.58;;
59054;SDS011;44845;51.444;7.460;2023-03-04T16:15:44;10.73;;;1.50;;
59054;SDS011;44845;51.444;7.460;2023-03-04T16:18:11;10.23;;;2.80;;
59054;SDS011;44845;51.444;7.460;2023-03-04T16:20:37;7.45;;;1.73;;
59054;SDS011;44845;51.444;7.460;2023-03-04T16:23:04;6.45;;;1.65;;
59054;SDS011;44845;51.444;7.460;2023-03-04T16:25:30;6.93;;;1.98;;
59054;SDS011;44845;51.444;7.460;2023-03-04T16:27:56;6.85;;;1.40;;
59054;SDS011;44845;51.444;7.460;2023-03-04T16:30:24;7.72;;;1.50;;
59054;SDS011;44845;51.444;7.460;2023-03-04T16:32:51;9.10;;;2.22;;
59054;SDS011;44845;51.444;7.460;2023-03-04T16:35:17;7.72;;;1.90;;
59054;SDS011;44845;51.444;7.460;2023-03-04T16:37:43;8.98;;;1.60;;